sensor_id;sensor_type;location;lat;lon;timestamp;P1;durP1;ratioP1;P2;durP2;ratioP2
45356;SDS011;31092;51.924;21.448;2024-03-22T00:01:51;13.93;;;7.57;;
45356;SDS011;31092;51.924;21.448;2024-03-22T00:04:18;18.90;;;9.65;;
45356;SDS011;31092;51.924;21.448;2024-03-22T00:06:45;19.75;;;8.70;;
45356;SDS011;31092;51.924;21.448;2024-03-22T00:09:12;16.75;;;9.13;;
45356;SDS011;31092;51.924;21.448;2024-03-22T00:11:39;15.25;;;8.65;;
45356;SDS011;31092;51.924;21.448;2024-03-22T00:14:05;15.73;;;9.25;;
45356;SDS011;31092;51.924;21.448;2024-03-22T00:16:31;24.73;;;10.73;;
45356;SDS011;31092;51.924;21.448;2024-03-22T00:18:57;15.45;;;7.63;;
45356;SDS011;31092;51.924;21.448;2024-03-22T00:21:22;18.40;;;9.43;;
45356;SDS011;31092;51.924;21.448;2024-03-22T00:23:48;16.75;;;8.90;;
45356;SDS011;31092;51.924;21.448;2024-03-22T00:26:14;18.15;;;10.48;;
45356;SDS011;31092;51.924;21.448;2024-03-22T00:28:40;16.73;;;9.77;;
45356;SDS011;31092;51.924;21.448;2024-03-22T00:31:05;17.52;;;9.45;;
45356;SDS011;31092;51.924;21.448;2024-03-22T00:33:31;15.60;;;8.90;;
45356;SDS011;31092;51.924;21.448;2024-03-22T00:35:57;17.00;;;9.75;;
45356;SDS011;31092;51.924;21.448;2024-03-22T00:38:23;19.33;;;10.10;;
45356;SDS011;31092;51.924;21.448;2024-03-22T00:40:49;18.80;;;10.23;;
45356;SDS011;31092;51.924;21.448;2024-03-22T00:43:14;21.45;;;9.88;;
45356;SDS011;31092;51.924;21.448;2024-03-22T00:45:40;21.08;;;10.32;;
45356;SDS011;31092;51.924;21.448;2024-03-22T00:48:06;23.13;;;10.68;;
45356;SDS011;31092;51.924;21.448;2024-03-22T00:50:32;26.10;;;10.30;;
45356;SDS011;31092;51.924;21.448;2024-03-22T00:52:57;18.95;;;10.00;;
45356;SDS011;31092;51.924;21.448;2024-03-22T00:55:23;19.25;;;10.10;;
45356;SDS011;31092;51.924;21.448;2024-03-22T00:57:49;23.08;;;10.48;;
45356;SDS011;31092;51.924;21.448;2024-03-22T01:00:16;21.08;;;10.35;;
45356;SDS011;31092;51.924;21.448;2024-03-22T01:02:43;14.85;;;9.20;;
45356;SDS011;31092;51.924;21.448;2024-03-22T01:05:09;21.38;;;11.07;;
45356;SDS011;31092;51.924;21.448;2024-03-22T01:07:35;21.58;;;10.60;;
45356;SDS011;31092;51.924;21.448;2024-03-22T01:10:01;25.05;;;11.80;;
45356;SDS011;31092;51.924;21.448;2024-03-22T01:12:28;17.35;;;9.93;;
45356;SDS011;31092;51.924;21.448;2024-03-22T01:14:53;21.13;;;10.05;;
45356;SDS011;31092;51.924;21.448;2024-03-22T01:17:19;20.20;;;11.18;;
45356;SDS011;31092;51.924;21.448;2024-03-22T01:19:45;23.90;;;11.40;;
45356;SDS011;31092;51.924;21.448;2024-03-22T01:22:10;22.48;;;10.85;;
45356;SDS011;31092;51.924;21.448;2024-03-22T01:24:36;20.83;;;11.25;;
45356;SDS011;31092;51.924;21.448;2024-03-22T01:27:01;19.92;;;10.77;;
45356;SDS011;31092;51.924;21.448;2024-03-22T01:29:27;21.80;;;10.98;;
45356;SDS011;31092;51.924;21.448;2024-03-22T01:31:55;25.55;;;11.75;;
45356;SDS011;31092;51.924;21.448;2024-03-22T01:34:21;27.58;;;11.50;;
45356;SDS011;31092;51.924;21.448;2024-03-22T01:36:47;27.40;;;11.77;;
45356;SDS011;31092;51.924;21.448;2024-03-22T01:39:12;21.08;;;12.45;;
45356;SDS011;31092;51.924;21.448;2024-03-22T01:41:39;20.77;;;11.38;;
45356;SDS011;31092;51.924;21.448;2024-03-22T01:44:06;26.50;;;11.65;;
45356;SDS011;31092;51.924;21.448;2024-03-22T01:46:31;25.98;;;11.45;;
45356;SDS011;31092;51.924;21.448;2024-03-22T01:48:57;22.08;;;11.70;;
45356;SDS011;31092;51.924;21.448;2024-03-22T01:51:23;22.67;;;12.10;;
45356;SDS011;31092;51.924;21.448;2024-03-22T01:53:49;23.85;;;11.93;;
45356;SDS011;31092;51.924;21.448;2024-03-22T01:56:15;24.65;;;11.65;;
45356;SDS011;31092;51.924;21.448;2024-03-22T01:58:40;29.48;;;12.80;;
45356;SDS011;31092;51.924;21.448;2024-03-22T02:01:07;22.65;;;11.45;;
45356;SDS011;31092;51.924;21.448;2024-03-22T02:03:32;21.33;;;12.18;;
45356;SDS011;31092;51.924;21.448;2024-03-22T02:05:58;26.58;;;13.52;;
45356;SDS011;31092;51.924;21.448;2024-03-22T02:08:23;23.20;;;12.05;;
45356;SDS011;31092;51.924;21.448;2024-03-22T02:10:49;21.73;;;12.75;;
45356;SDS011;31092;51.924;21.448;2024-03-22T02:13:14;21.48;;;12.88;;
45356;SDS011;31092;51.924;21.448;2024-03-22T02:15:40;27.83;;;13.55;;
45356;SDS011;31092;51.924;21.448;2024-03-22T02:18:05;28.48;;;13.23;;
45356;SDS011;31092;51.924;21.448;2024-03-22T02:20:31;26.13;;;13.75;;
45356;SDS011;31092;51.924;21.448;2024-03-22T02:22:57;29.50;;;14.45;;
45356;SDS011;31092;51.924;21.448;2024-03-22T02:25:22;26.05;;;13.30;;
45356;SDS011;31092;51.924;21.448;2024-03-22T02:27:48;25.67;;;13.82;;
45356;SDS011;31092;51.924;21.448;2024-03-22T02:30:15;25.88;;;14.48;;
45356;SDS011;31092;51.924;21.448;2024-03-22T02:32:42;26.00;;;13.43;;
45356;SDS011;31092;51.924;21.448;2024-03-22T02:35:07;27.27;;;14.05;;
45356;SDS011;31092;51.924;21.448;2024-03-22T02:37:33;29.20;;;13.85;;
45356;SDS011;31092;51.924;21.448;2024-03-22T02:39:59;26.95;;;13.15;;
45356;SDS011;31092;51.924;21.448;2024-03-22T02:42:24;28.13;;;14.27;;
45356;SDS011;31092;51.924;21.448;2024-03-22T02:44:50;24.77;;;11.98;;
45356;SDS011;31092;51.924;21.448;2024-03-22T02:47:16;25.00;;;13.73;;
45356;SDS011;31092;51.924;21.448;2024-03-22T02:49:41;26.65;;;14.05;;
45356;SDS011;31092;51.924;21.448;2024-03-22T02:52:07;26.73;;;13.48;;
45356;SDS011;31092;51.924;21.448;2024-03-22T02:54:32;26.17;;;13.13;;
45356;SDS011;31092;51.924;21.448;2024-03-22T02:56:58;30.83;;;14.70;;
45356;SDS011;31092;51.924;21.448;2024-03-22T02:59:27;26.70;;;14.13;;
45356;SDS011;31092;51.924;21.448;2024-03-22T03:01:52;25.30;;;13.50;;
45356;SDS011;31092;51.924;21.448;2024-03-22T03:04:18;36.13;;;13.95;;
45356;SDS011;31092;51.924;21.448;2024-03-22T03:06:44;28.23;;;14.40;;
45356;SDS011;31092;51.924;21.448;2024-03-22T03:09:10;29.45;;;14.93;;
45356;SDS011;31092;51.924;21.448;2024-03-22T03:11:38;25.63;;;13.93;;
45356;SDS011;31092;51.924;21.448;2024-03-22T03:14:04;27.00;;;14.60;;
45356;SDS011;31092;51.924;21.448;2024-03-22T03:16:30;32.63;;;15.00;;
45356;SDS011;31092;51.924;21.448;2024-03-22T03:18:55;25.25;;;13.85;;
45356;SDS011;31092;51.924;21.448;2024-03-22T03:21:21;26.88;;;13.43;;
45356;SDS011;31092;51.924;21.448;2024-03-22T03:23:46;30.45;;;14.80;;
45356;SDS011;31092;51.924;21.448;2024-03-22T03:26:12;26.33;;;13.77;;
45356;SDS011;31092;51.924;21.448;2024-03-22T03:28:38;30.83;;;14.88;;
45356;SDS011;31092;51.924;21.448;2024-03-22T03:31:03;26.77;;;15.10;;
45356;SDS011;31092;51.924;21.448;2024-03-22T03:33:29;29.05;;;14.30;;
45356;SDS011;31092;51.924;21.448;2024-03-22T03:35:55;29.08;;;16.05;;
45356;SDS011;31092;51.924;21.448;2024-03-22T03:38:21;31.58;;;17.00;;
45356;SDS011;31092;51.924;21.448;2024-03-22T03:40:47;28.42;;;14.43;;
45356;SDS011;31092;51.924;21.448;2024-03-22T03:43:13;28.90;;;14.50;;
45356;SDS011;31092;51.924;21.448;2024-03-22T03:45:38;26.27;;;15.05;;
45356;SDS011;31092;51.924;21.448;2024-03-22T03:48:04;32.83;;;15.93;;
45356;SDS011;31092;51.924;21.448;2024-03-22T03:50:30;31.23;;;14.00;;
45356;SDS011;31092;51.924;21.448;2024-03-22T03:52:56;33.53;;;16.45;;
45356;SDS011;31092;51.924;21.448;2024-03-22T03:55:22;33.15;;;15.57;;
45356;SDS011;31092;51.924;21.448;2024-03-22T03:57:49;36.50;;;14.55;;
45356;SDS011;31092;51.924;21.448;2024-03-22T04:00:15;27.30;;;14.77;;
45356;SDS011;31092;51.924;21.448;2024-03-22T04:02:41;39.17;;;16.88;;
45356;SDS011;31092;51.924;21.448;2024-03-22T04:05:06;32.42;;;16.50;;
45356;SDS011;31092;51.924;21.448;2024-03-22T04:07:32;31.40;;;16.27;;
45356;SDS011;31092;51.924;21.448;2024-03-22T04:10:01;33.20;;;15.57;;
45356;SDS011;31092;51.924;21.448;2024-03-22T04:12:33;32.83;;;15.45;;
45356;SDS011;31092;51.924;21.448;2024-03-22T04:14:58;29.85;;;15.07;;
45356;SDS011;31092;51.924;21.448;2024-03-22T04:17:24;36.25;;;16.30;;
45356;SDS011;31092;51.924;21.448;2024-03-22T04:19:49;31.58;;;15.07;;
45356;SDS011;31092;51.924;21.448;2024-03-22T04:22:15;30.05;;;15.82;;
45356;SDS011;31092;51.924;21.448;2024-03-22T04:24:40;34.00;;;17.48;;
45356;SDS011;31092;51.924;21.448;2024-03-22T04:27:06;33.65;;;15.15;;
45356;SDS011;31092;51.924;21.448;2024-03-22T04:29:33;27.83;;;16.25;;
45356;SDS011;31092;51.924;21.448;2024-03-22T04:31:58;29.90;;;14.60;;
45356;SDS011;31092;51.924;21.448;2024-03-22T04:34:24;32.95;;;16.48;;
45356;SDS011;31092;51.924;21.448;2024-03-22T04:36:50;33.70;;;17.67;;
45356;SDS011;31092;51.924;21.448;2024-03-22T04:39:17;29.40;;;16.05;;
45356;SDS011;31092;51.924;21.448;2024-03-22T04:41:44;31.23;;;15.63;;
45356;SDS011;31092;51.924;21.448;2024-03-22T04:44:09;30.65;;;16.35;;
45356;SDS011;31092;51.924;21.448;2024-03-22T04:46:35;30.98;;;16.13;;
45356;SDS011;31092;51.924;21.448;2024-03-22T04:49:00;33.00;;;16.25;;
45356;SDS011;31092;51.924;21.448;2024-03-22T04:51:26;39.42;;;16.10;;
45356;SDS011;31092;51.924;21.448;2024-03-22T04:53:51;33.08;;;16.70;;
45356;SDS011;31092;51.924;21.448;2024-03-22T04:56:17;31.25;;;15.82;;
45356;SDS011;31092;51.924;21.448;2024-03-22T04:58:42;33.30;;;16.85;;
45356;SDS011;31092;51.924;21.448;2024-03-22T05:01:08;38.25;;;18.38;;
45356;SDS011;31092;51.924;21.448;2024-03-22T05:03:33;31.13;;;17.75;;
45356;SDS011;31092;51.924;21.448;2024-03-22T05:05:59;31.92;;;16.50;;
45356;SDS011;31092;51.924;21.448;2024-03-22T05:08:28;31.65;;;16.48;;
45356;SDS011;31092;51.924;21.448;2024-03-22T05:10:53;30.52;;;16.70;;
45356;SDS011;31092;51.924;21.448;2024-03-22T05:13:19;31.80;;;16.73;;
45356;SDS011;31092;51.924;21.448;2024-03-22T05:15:44;30.15;;;16.33;;
45356;SDS011;31092;51.924;21.448;2024-03-22T05:18:11;28.98;;;15.45;;
45356;SDS011;31092;51.924;21.448;2024-03-22T05:20:37;25.85;;;15.40;;
45356;SDS011;31092;51.924;21.448;2024-03-22T05:23:02;29.92;;;16.15;;
45356;SDS011;31092;51.924;21.448;2024-03-22T05:25:28;29.55;;;14.85;;
45356;SDS011;31092;51.924;21.448;2024-03-22T05:27:54;28.73;;;15.63;;
45356;SDS011;31092;51.924;21.448;2024-03-22T05:30:19;28.77;;;14.73;;
45356;SDS011;31092;51.924;21.448;2024-03-22T05:32:45;26.70;;;13.75;;
45356;SDS011;31092;51.924;21.448;2024-03-22T05:35:10;25.58;;;13.75;;
45356;SDS011;31092;51.924;21.448;2024-03-22T05:37:36;20.05;;;11.38;;
45356;SDS011;31092;51.924;21.448;2024-03-22T05:40:02;22.85;;;12.77;;
45356;SDS011;31092;51.924;21.448;2024-03-22T05:42:31;20.67;;;12.60;;
45356;SDS011;31092;51.924;21.448;2024-03-22T05:44:57;24.63;;;12.07;;
45356;SDS011;31092;51.924;21.448;2024-03-22T05:47:23;22.98;;;11.85;;
45356;SDS011;31092;51.924;21.448;2024-03-22T05:49:48;20.55;;;11.93;;
45356;SDS011;31092;51.924;21.448;2024-03-22T05:52:14;24.52;;;12.77;;
45356;SDS011;31092;51.924;21.448;2024-03-22T05:54:39;20.98;;;11.77;;
45356;SDS011;31092;51.924;21.448;2024-03-22T06:00:14;26.08;;;13.77;;
45356;SDS011;31092;51.924;21.448;2024-03-22T06:02:40;22.15;;;12.48;;
45356;SDS011;31092;51.924;21.448;2024-03-22T06:05:06;26.50;;;13.57;;
45356;SDS011;31092;51.924;21.448;2024-03-22T06:07:31;25.50;;;12.68;;
45356;SDS011;31092;51.924;21.448;2024-03-22T06:10:05;24.60;;;13.05;;
45356;SDS011;31092;51.924;21.448;2024-03-22T06:12:31;24.35;;;12.57;;
45356;SDS011;31092;51.924;21.448;2024-03-22T06:14:57;25.85;;;13.85;;
45356;SDS011;31092;51.924;21.448;2024-03-22T06:17:22;29.75;;;13.48;;
45356;SDS011;31092;51.924;21.448;2024-03-22T06:19:48;27.20;;;12.73;;
45356;SDS011;31092;51.924;21.448;2024-03-22T06:22:13;28.35;;;13.10;;
45356;SDS011;31092;51.924;21.448;2024-03-22T06:24:39;24.52;;;12.63;;
45356;SDS011;31092;51.924;21.448;2024-03-22T06:27:05;25.98;;;13.07;;
45356;SDS011;31092;51.924;21.448;2024-03-22T06:29:30;26.88;;;13.32;;
45356;SDS011;31092;51.924;21.448;2024-03-22T06:31:56;26.00;;;13.07;;
45356;SDS011;31092;51.924;21.448;2024-03-22T06:34:21;24.67;;;12.07;;
45356;SDS011;31092;51.924;21.448;2024-03-22T06:36:47;22.98;;;12.02;;
45356;SDS011;31092;51.924;21.448;2024-03-22T06:39:12;25.10;;;12.43;;
45356;SDS011;31092;51.924;21.448;2024-03-22T06:41:39;26.73;;;13.38;;
45356;SDS011;31092;51.924;21.448;2024-03-22T06:44:05;29.38;;;12.90;;
45356;SDS011;31092;51.924;21.448;2024-03-22T06:46:30;27.83;;;13.35;;
45356;SDS011;31092;51.924;21.448;2024-03-22T06:48:57;28.73;;;13.98;;
45356;SDS011;31092;51.924;21.448;2024-03-22T06:51:23;26.80;;;12.55;;
45356;SDS011;31092;51.924;21.448;2024-03-22T06:53:48;23.83;;;13.38;;
45356;SDS011;31092;51.924;21.448;2024-03-22T06:56:14;26.17;;;13.57;;
45356;SDS011;31092;51.924;21.448;2024-03-22T06:58:40;27.17;;;13.38;;
45356;SDS011;31092;51.924;21.448;2024-03-22T07:01:05;28.50;;;13.57;;
45356;SDS011;31092;51.924;21.448;2024-03-22T07:03:31;31.27;;;13.80;;
45356;SDS011;31092;51.924;21.448;2024-03-22T07:05:57;22.00;;;12.32;;
45356;SDS011;31092;51.924;21.448;2024-03-22T07:08:30;22.98;;;12.32;;
45356;SDS011;31092;51.924;21.448;2024-03-22T07:10:56;28.48;;;12.82;;
45356;SDS011;31092;51.924;21.448;2024-03-22T07:13:24;25.13;;;11.95;;
45356;SDS011;31092;51.924;21.448;2024-03-22T07:15:56;24.75;;;11.95;;
45356;SDS011;31092;51.924;21.448;2024-03-22T07:18:21;23.67;;;12.23;;
45356;SDS011;31092;51.924;21.448;2024-03-22T07:20:47;26.00;;;13.18;;
45356;SDS011;31092;51.924;21.448;2024-03-22T07:23:13;23.73;;;12.10;;
45356;SDS011;31092;51.924;21.448;2024-03-22T07:25:38;23.67;;;12.35;;
45356;SDS011;31092;51.924;21.448;2024-03-22T07:28:04;22.25;;;12.48;;
45356;SDS011;31092;51.924;21.448;2024-03-22T07:30:30;27.65;;;13.15;;
45356;SDS011;31092;51.924;21.448;2024-03-22T07:32:55;27.17;;;13.77;;
45356;SDS011;31092;51.924;21.448;2024-03-22T07:35:21;20.52;;;11.43;;
45356;SDS011;31092;51.924;21.448;2024-03-22T07:37:47;25.10;;;12.45;;
45356;SDS011;31092;51.924;21.448;2024-03-22T07:40:13;24.33;;;11.98;;
45356;SDS011;31092;51.924;21.448;2024-03-22T07:42:38;24.83;;;12.35;;
45356;SDS011;31092;51.924;21.448;2024-03-22T07:45:04;24.25;;;11.70;;
45356;SDS011;31092;51.924;21.448;2024-03-22T07:47:30;28.23;;;12.43;;
45356;SDS011;31092;51.924;21.448;2024-03-22T07:49:55;27.05;;;12.90;;
45356;SDS011;31092;51.924;21.448;2024-03-22T07:52:21;21.60;;;11.90;;
45356;SDS011;31092;51.924;21.448;2024-03-22T07:54:47;26.45;;;12.85;;
45356;SDS011;31092;51.924;21.448;2024-03-22T07:57:12;24.08;;;12.32;;
45356;SDS011;31092;51.924;21.448;2024-03-22T07:59:38;29.27;;;13.50;;
45356;SDS011;31092;51.924;21.448;2024-03-22T08:02:03;23.25;;;11.55;;
45356;SDS011;31092;51.924;21.448;2024-03-22T08:04:29;28.67;;;13.50;;
45356;SDS011;31092;51.924;21.448;2024-03-22T08:06:54;29.55;;;12.75;;
45356;SDS011;31092;51.924;21.448;2024-03-22T08:09:20;23.70;;;11.57;;
45356;SDS011;31092;51.924;21.448;2024-03-22T08:11:46;24.42;;;12.40;;
45356;SDS011;31092;51.924;21.448;2024-03-22T08:14:13;26.67;;;12.57;;
45356;SDS011;31092;51.924;21.448;2024-03-22T08:16:38;26.63;;;12.75;;
45356;SDS011;31092;51.924;21.448;2024-03-22T08:19:04;31.48;;;12.95;;
45356;SDS011;31092;51.924;21.448;2024-03-22T08:21:29;25.90;;;13.05;;
45356;SDS011;31092;51.924;21.448;2024-03-22T08:23:55;29.02;;;14.35;;
45356;SDS011;31092;51.924;21.448;2024-03-22T08:26:20;26.48;;;12.43;;
45356;SDS011;31092;51.924;21.448;2024-03-22T08:28:46;28.02;;;13.55;;
45356;SDS011;31092;51.924;21.448;2024-03-22T08:31:12;25.20;;;12.73;;
45356;SDS011;31092;51.924;21.448;2024-03-22T08:33:39;23.00;;;12.77;;
45356;SDS011;31092;51.924;21.448;2024-03-22T08:36:04;27.77;;;12.25;;
45356;SDS011;31092;51.924;21.448;2024-03-22T08:38:30;26.60;;;13.35;;
45356;SDS011;31092;51.924;21.448;2024-03-22T08:40:55;24.02;;;11.77;;
45356;SDS011;31092;51.924;21.448;2024-03-22T08:43:21;30.48;;;13.93;;
45356;SDS011;31092;51.924;21.448;2024-03-22T08:45:54;29.83;;;14.13;;
45356;SDS011;31092;51.924;21.448;2024-03-22T08:48:20;28.98;;;13.63;;
45356;SDS011;31092;51.924;21.448;2024-03-22T08:50:46;35.05;;;15.90;;
45356;SDS011;31092;51.924;21.448;2024-03-22T08:53:11;27.67;;;14.68;;
45356;SDS011;31092;51.924;21.448;2024-03-22T08:55:37;32.55;;;14.10;;
45356;SDS011;31092;51.924;21.448;2024-03-22T08:58:03;30.23;;;14.75;;
45356;SDS011;31092;51.924;21.448;2024-03-22T09:00:30;31.90;;;15.10;;
45356;SDS011;31092;51.924;21.448;2024-03-22T09:02:55;34.50;;;15.35;;
45356;SDS011;31092;51.924;21.448;2024-03-22T09:05:21;30.10;;;15.13;;
45356;SDS011;31092;51.924;21.448;2024-03-22T09:07:47;28.58;;;13.98;;
45356;SDS011;31092;51.924;21.448;2024-03-22T09:10:13;27.52;;;13.52;;
45356;SDS011;31092;51.924;21.448;2024-03-22T09:12:39;29.23;;;13.63;;
45356;SDS011;31092;51.924;21.448;2024-03-22T09:15:05;26.23;;;14.02;;
45356;SDS011;31092;51.924;21.448;2024-03-22T09:17:31;25.98;;;14.68;;
45356;SDS011;31092;51.924;21.448;2024-03-22T09:19:56;25.08;;;12.27;;
45356;SDS011;31092;51.924;21.448;2024-03-22T09:22:22;28.48;;;13.10;;
45356;SDS011;31092;51.924;21.448;2024-03-22T09:24:48;22.52;;;11.25;;
45356;SDS011;31092;51.924;21.448;2024-03-22T09:27:13;26.70;;;11.88;;
45356;SDS011;31092;51.924;21.448;2024-03-22T09:29:39;28.80;;;13.55;;
45356;SDS011;31092;51.924;21.448;2024-03-22T09:32:05;26.73;;;11.32;;
45356;SDS011;31092;51.924;21.448;2024-03-22T09:34:30;24.63;;;11.38;;
45356;SDS011;31092;51.924;21.448;2024-03-22T09:36:56;29.30;;;13.18;;
45356;SDS011;31092;51.924;21.448;2024-03-22T09:39:23;23.40;;;10.88;;
45356;SDS011;31092;51.924;21.448;2024-03-22T09:41:49;21.25;;;11.10;;
45356;SDS011;31092;51.924;21.448;2024-03-22T09:44:17;21.83;;;11.23;;
45356;SDS011;31092;51.924;21.448;2024-03-22T09:46:44;20.55;;;11.43;;
45356;SDS011;31092;51.924;21.448;2024-03-22T09:49:11;20.35;;;11.25;;
45356;SDS011;31092;51.924;21.448;2024-03-22T09:51:37;19.02;;;10.50;;
45356;SDS011;31092;51.924;21.448;2024-03-22T09:54:04;21.50;;;10.75;;
45356;SDS011;31092;51.924;21.448;2024-03-22T09:56:31;23.05;;;11.93;;
45356;SDS011;31092;51.924;21.448;2024-03-22T09:58:59;23.90;;;10.43;;
45356;SDS011;31092;51.924;21.448;2024-03-22T10:01:25;19.70;;;10.52;;
45356;SDS011;31092;51.924;21.448;2024-03-22T10:03:51;21.13;;;11.90;;
45356;SDS011;31092;51.924;21.448;2024-03-22T10:06:18;23.17;;;11.98;;
45356;SDS011;31092;51.924;21.448;2024-03-22T10:08:44;20.63;;;10.93;;
45356;SDS011;31092;51.924;21.448;2024-03-22T10:11:10;21.48;;;11.05;;
45356;SDS011;31092;51.924;21.448;2024-03-22T10:13:36;19.55;;;10.50;;
45356;SDS011;31092;51.924;21.448;2024-03-22T10:16:01;25.52;;;11.70;;
45356;SDS011;31092;51.924;21.448;2024-03-22T10:18:27;21.23;;;11.02;;
45356;SDS011;31092;51.924;21.448;2024-03-22T10:21:00;17.98;;;11.32;;
45356;SDS011;31092;51.924;21.448;2024-03-22T10:23:29;15.35;;;9.45;;
45356;SDS011;31092;51.924;21.448;2024-03-22T10:25:59;16.83;;;9.65;;
45356;SDS011;31092;51.924;21.448;2024-03-22T10:28:25;18.98;;;9.68;;
45356;SDS011;31092;51.924;21.448;2024-03-22T10:30:52;14.75;;;8.70;;
45356;SDS011;31092;51.924;21.448;2024-03-22T10:33:18;14.60;;;8.10;;
45356;SDS011;31092;51.924;21.448;2024-03-22T10:35:54;14.70;;;8.23;;
45356;SDS011;31092;51.924;21.448;2024-03-22T10:38:20;11.82;;;7.38;;
45356;SDS011;31092;51.924;21.448;2024-03-22T10:40:46;13.75;;;8.32;;
45356;SDS011;31092;51.924;21.448;2024-03-22T10:43:15;16.58;;;8.77;;
45356;SDS011;31092;51.924;21.448;2024-03-22T10:45:41;13.20;;;7.63;;
45356;SDS011;31092;51.924;21.448;2024-03-22T10:48:11;11.85;;;7.50;;
45356;SDS011;31092;51.924;21.448;2024-03-22T10:50:39;12.60;;;8.00;;
45356;SDS011;31092;51.924;21.448;2024-03-22T10:53:17;13.55;;;7.25;;
45356;SDS011;31092;51.924;21.448;2024-03-22T10:55:46;13.13;;;7.35;;
45356;SDS011;31092;51.924;21.448;2024-03-22T10:58:15;13.95;;;8.32;;
45356;SDS011;31092;51.924;21.448;2024-03-22T11:00:46;13.20;;;7.40;;
45356;SDS011;31092;51.924;21.448;2024-03-22T11:03:12;12.10;;;7.13;;
45356;SDS011;31092;51.924;21.448;2024-03-22T11:05:45;12.88;;;7.50;;
45356;SDS011;31092;51.924;21.448;2024-03-22T11:08:24;13.43;;;7.78;;
45356;SDS011;31092;51.924;21.448;2024-03-22T11:10:54;12.52;;;7.38;;
45356;SDS011;31092;51.924;21.448;2024-03-22T11:13:22;11.05;;;7.70;;
45356;SDS011;31092;51.924;21.448;2024-03-22T11:15:48;13.43;;;7.85;;
45356;SDS011;31092;51.924;21.448;2024-03-22T11:18:17;10.38;;;7.35;;
45356;SDS011;31092;51.924;21.448;2024-03-22T11:20:43;12.05;;;7.07;;
45356;SDS011;31092;51.924;21.448;2024-03-22T11:23:10;14.43;;;8.20;;
45356;SDS011;31092;51.924;21.448;2024-03-22T11:25:36;13.75;;;8.55;;
45356;SDS011;31092;51.924;21.448;2024-03-22T11:28:01;12.85;;;7.65;;
45356;SDS011;31092;51.924;21.448;2024-03-22T11:30:28;12.23;;;8.15;;
45356;SDS011;31092;51.924;21.448;2024-03-22T11:32:54;13.18;;;8.18;;
45356;SDS011;31092;51.924;21.448;2024-03-22T11:35:21;10.15;;;7.20;;
45356;SDS011;31092;51.924;21.448;2024-03-22T11:37:47;13.68;;;8.70;;
45356;SDS011;31092;51.924;21.448;2024-03-22T11:40:14;15.80;;;8.15;;
45356;SDS011;31092;51.924;21.448;2024-03-22T11:42:40;14.68;;;8.30;;
45356;SDS011;31092;51.924;21.448;2024-03-22T11:45:10;13.68;;;8.45;;
45356;SDS011;31092;51.924;21.448;2024-03-22T11:47:37;13.02;;;8.38;;
45356;SDS011;31092;51.924;21.448;2024-03-22T11:50:02;13.98;;;7.40;;
45356;SDS011;31092;51.924;21.448;2024-03-22T11:52:29;15.00;;;8.73;;
45356;SDS011;31092;51.924;21.448;2024-03-22T11:54:55;17.80;;;8.30;;
45356;SDS011;31092;51.924;21.448;2024-03-22T11:57:22;13.88;;;8.32;;
45356;SDS011;31092;51.924;21.448;2024-03-22T11:59:48;14.90;;;8.20;;
45356;SDS011;31092;51.924;21.448;2024-03-22T12:02:14;14.32;;;8.10;;
45356;SDS011;31092;51.924;21.448;2024-03-22T12:04:41;12.88;;;8.10;;
45356;SDS011;31092;51.924;21.448;2024-03-22T12:07:10;10.63;;;6.50;;
45356;SDS011;31092;51.924;21.448;2024-03-22T12:09:36;10.95;;;7.40;;
45356;SDS011;31092;51.924;21.448;2024-03-22T12:12:03;13.75;;;7.88;;
45356;SDS011;31092;51.924;21.448;2024-03-22T12:14:29;11.27;;;7.03;;
45356;SDS011;31092;51.924;21.448;2024-03-22T12:16:55;11.80;;;7.22;;
45356;SDS011;31092;51.924;21.448;2024-03-22T12:19:20;9.48;;;5.97;;
45356;SDS011;31092;51.924;21.448;2024-03-22T12:21:52;9.60;;;6.00;;
45356;SDS011;31092;51.924;21.448;2024-03-22T12:24:23;11.45;;;7.07;;
45356;SDS011;31092;51.924;21.448;2024-03-22T12:26:49;11.43;;;7.30;;
45356;SDS011;31092;51.924;21.448;2024-03-22T12:29:15;9.23;;;6.45;;
45356;SDS011;31092;51.924;21.448;2024-03-22T12:31:41;8.48;;;6.72;;
45356;SDS011;31092;51.924;21.448;2024-03-22T12:34:08;13.85;;;7.20;;
45356;SDS011;31092;51.924;21.448;2024-03-22T12:36:34;11.13;;;6.88;;
45356;SDS011;31092;51.924;21.448;2024-03-22T12:38:59;10.27;;;6.90;;
45356;SDS011;31092;51.924;21.448;2024-03-22T12:41:25;13.27;;;6.00;;
45356;SDS011;31092;51.924;21.448;2024-03-22T12:43:51;10.90;;;6.25;;
45356;SDS011;31092;51.924;21.448;2024-03-22T12:46:16;8.90;;;5.97;;
45356;SDS011;31092;51.924;21.448;2024-03-22T12:48:42;10.02;;;6.78;;
45356;SDS011;31092;51.924;21.448;2024-03-22T12:51:08;7.57;;;6.05;;
45356;SDS011;31092;51.924;21.448;2024-03-22T12:53:34;7.20;;;5.22;;
45356;SDS011;31092;51.924;21.448;2024-03-22T12:55:59;7.30;;;5.75;;
45356;SDS011;31092;51.924;21.448;2024-03-22T12:58:25;7.65;;;5.10;;
45356;SDS011;31092;51.924;21.448;2024-03-22T13:00:50;7.82;;;5.55;;
45356;SDS011;31092;51.924;21.448;2024-03-22T13:03:16;6.68;;;5.47;;
45356;SDS011;31092;51.924;21.448;2024-03-22T13:05:42;7.25;;;5.93;;
45356;SDS011;31092;51.924;21.448;2024-03-22T13:08:08;8.30;;;5.40;;
45356;SDS011;31092;51.924;21.448;2024-03-22T13:10:33;5.65;;;4.65;;
45356;SDS011;31092;51.924;21.448;2024-03-22T13:12:59;8.80;;;7.38;;
45356;SDS011;31092;51.924;21.448;2024-03-22T13:15:24;8.07;;;5.72;;
45356;SDS011;31092;51.924;21.448;2024-03-22T13:17:51;6.13;;;5.47;;
45356;SDS011;31092;51.924;21.448;2024-03-22T13:20:17;6.70;;;4.90;;
45356;SDS011;31092;51.924;21.448;2024-03-22T13:22:43;7.55;;;5.35;;
45356;SDS011;31092;51.924;21.448;2024-03-22T13:25:09;6.30;;;5.25;;
45356;SDS011;31092;51.924;21.448;2024-03-22T13:27:36;7.22;;;5.20;;
45356;SDS011;31092;51.924;21.448;2024-03-22T13:30:04;7.75;;;5.60;;
45356;SDS011;31092;51.924;21.448;2024-03-22T13:35:01;6.15;;;4.97;;
45356;SDS011;31092;51.924;21.448;2024-03-22T13:37:26;9.45;;;6.30;;
45356;SDS011;31092;51.924;21.448;2024-03-22T13:39:52;10.32;;;6.28;;
45356;SDS011;31092;51.924;21.448;2024-03-22T13:42:17;6.97;;;5.95;;
45356;SDS011;31092;51.924;21.448;2024-03-22T13:44:44;12.80;;;7.72;;
45356;SDS011;31092;51.924;21.448;2024-03-22T13:47:10;8.80;;;5.70;;
45356;SDS011;31092;51.924;21.448;2024-03-22T13:49:36;5.80;;;5.10;;
45356;SDS011;31092;51.924;21.448;2024-03-22T13:52:01;8.05;;;5.18;;
45356;SDS011;31092;51.924;21.448;2024-03-22T13:54:27;7.72;;;5.75;;
45356;SDS011;31092;51.924;21.448;2024-03-22T13:56:59;8.77;;;5.30;;
45356;SDS011;31092;51.924;21.448;2024-03-22T13:59:25;7.63;;;5.40;;
45356;SDS011;31092;51.924;21.448;2024-03-22T14:01:51;10.45;;;5.28;;
45356;SDS011;31092;51.924;21.448;2024-03-22T14:04:17;5.90;;;5.05;;
45356;SDS011;31092;51.924;21.448;2024-03-22T14:06:45;6.82;;;5.57;;
45356;SDS011;31092;51.924;21.448;2024-03-22T14:09:10;8.98;;;6.20;;
45356;SDS011;31092;51.924;21.448;2024-03-22T14:11:38;7.38;;;5.28;;
45356;SDS011;31092;51.924;21.448;2024-03-22T14:14:04;6.82;;;5.65;;